createdAt,value
2018-09-09T00:00:47.520Z,1016.43
2018-09-09T00:01:47.501Z,1016.43
2018-09-09T00:02:47.496Z,1016.46
2018-09-09T00:03:47.490Z,1016.46
2018-09-09T00:04:47.492Z,1016.46
2018-09-09T00:05:47.492Z,1016.41
2018-09-09T00:06:47.477Z,1016.43
2018-09-09T00:07:47.482Z,1016.40
2018-09-09T00:08:47.467Z,1016.43
2018-09-09T00:09:47.457Z,1016.45
2018-09-09T00:10:47.452Z,1016.48
2018-09-09T00:11:47.447Z,1016.44
2018-09-09T00:12:47.447Z,1016.40
2018-09-09T00:13:47.442Z,1016.39
2018-09-09T00:14:47.439Z,1016.42
2018-09-09T00:15:47.432Z,1016.40
2018-09-09T00:16:47.418Z,1016.42
2018-09-09T00:17:47.435Z,1016.41
2018-09-09T00:18:47.438Z,1016.42
2018-09-09T00:19:47.412Z,1016.38
2018-09-09T00:20:47.412Z,1016.40
2018-09-09T00:21:47.427Z,1016.40
2018-09-09T00:22:47.393Z,1016.40
2018-09-09T00:23:47.397Z,1016.44
2018-09-09T00:24:47.399Z,1016.45
2018-09-09T00:25:47.381Z,1016.44
2018-09-09T00:26:47.382Z,1016.43
2018-09-09T00:27:47.368Z,1016.45
2018-09-09T00:28:47.362Z,1016.42
2018-09-09T00:29:47.357Z,1016.48
2018-09-09T00:30:47.362Z,1016.46
2018-09-09T00:31:47.358Z,1016.41
2018-09-09T00:32:47.347Z,1016.40
2018-09-09T00:33:47.328Z,1016.38
2018-09-09T00:34:47.334Z,1016.37
2018-09-09T00:35:47.321Z,1016.37
2018-09-09T00:36:47.320Z,1016.36
2018-09-09T00:37:47.328Z,1016.34
2018-09-09T00:38:47.319Z,1016.37
2018-09-09T00:39:47.314Z,1016.34
2018-09-09T00:40:47.301Z,1016.34
2018-09-09T00:41:47.295Z,1016.32
2018-09-09T00:42:47.289Z,1016.31
2018-09-09T00:43:47.285Z,1016.33
2018-09-09T00:44:47.305Z,1016.33
2018-09-09T00:45:48.720Z,1016.34
2018-09-09T00:46:47.295Z,1016.34
2018-09-09T00:47:47.259Z,1016.34
2018-09-09T00:48:47.259Z,1016.30
2018-09-09T00:49:47.267Z,1016.31
2018-09-09T00:50:47.253Z,1016.34
2018-09-09T00:51:47.263Z,1016.31
2018-09-09T00:52:47.243Z,1016.34
2018-09-09T00:53:47.271Z,1016.36
2018-09-09T00:54:47.232Z,1016.34
2018-09-09T00:55:47.232Z,1016.38
2018-09-09T00:56:47.232Z,1016.35
2018-09-09T00:57:47.239Z,1016.37
2018-09-09T00:58:47.208Z,1016.39
2018-09-09T00:59:47.225Z,1016.40
2018-09-09T01:00:47.208Z,1016.39
2018-09-09T01:01:47.193Z,1016.39
2018-09-09T01:02:47.187Z,1016.40
2018-09-09T01:03:47.191Z,1016.41
2018-09-09T01:04:47.181Z,1016.38
2018-09-09T01:05:47.176Z,1016.37
2018-09-09T01:06:47.172Z,1016.30
2018-09-09T01:07:47.184Z,1016.28
2018-09-09T01:08:47.162Z,1016.26
2018-09-09T01:09:47.166Z,1016.25
2018-09-09T01:10:47.147Z,1016.25
2018-09-09T01:11:47.143Z,1016.26
2018-09-09T01:12:47.138Z,1016.24
2018-09-09T01:13:47.146Z,1016.21
2018-09-09T01:14:47.132Z,1016.17
2018-09-09T01:15:47.127Z,1016.12
2018-09-09T01:16:47.142Z,1016.12
2018-09-09T01:17:47.113Z,1016.11
2018-09-09T01:18:47.103Z,1016.12
2018-09-09T01:19:47.114Z,1016.09
2018-09-09T01:20:47.097Z,1016.05
2018-09-09T01:21:47.101Z,1016.05
2018-09-09T01:22:47.092Z,1016.00
2018-09-09T01:23:47.093Z,1015.97
2018-09-09T01:24:47.077Z,1015.92
2018-09-09T01:25:47.071Z,1015.91
2018-09-09T01:26:47.084Z,1015.84
2018-09-09T01:27:47.067Z,1015.85
2018-09-09T01:28:47.051Z,1015.84
2018-09-09T01:29:47.063Z,1015.84
2018-09-09T01:30:47.058Z,1015.87
2018-09-09T01:31:47.054Z,1015.88
2018-09-09T01:32:47.059Z,1015.98
2018-09-09T01:33:47.036Z,1016.05
2018-09-09T01:34:47.033Z,1016.12
2018-09-09T01:35:47.042Z,1016.18
2018-09-09T01:36:47.035Z,1016.23
2018-09-09T01:37:47.018Z,1016.28
2018-09-09T01:38:47.012Z,1016.35
2018-09-09T01:39:47.007Z,1016.40
2018-09-09T01:40:47.013Z,1016.45
2018-09-09T01:41:47.002Z,1016.42
2018-09-09T01:42:46.992Z,1016.37
2018-09-09T01:43:46.989Z,1016.41
2018-09-09T01:44:46.977Z,1016.40
2018-09-09T01:45:46.976Z,1016.42
2018-09-09T01:46:46.983Z,1016.43
2018-09-09T01:47:46.973Z,1016.49
2018-09-09T01:48:46.957Z,1016.45
2018-09-09T01:49:46.953Z,1016.46
2018-09-09T01:50:46.946Z,1016.46
2018-09-09T01:51:46.948Z,1016.46
2018-09-09T01:52:46.931Z,1016.48
2018-09-09T01:53:46.933Z,1016.46
2018-09-09T01:54:46.934Z,1016.47
2018-09-09T01:55:46.921Z,1016.46
2018-09-09T01:56:46.922Z,1016.50
2018-09-09T01:57:46.917Z,1016.52
2018-09-09T01:58:46.911Z,1016.57
2018-09-09T01:59:46.903Z,1016.51
2018-09-09T02:00:46.908Z,1016.50
2018-09-09T02:01:46.905Z,1016.47
2018-09-09T02:02:46.885Z,1016.42
2018-09-09T02:03:46.878Z,1016.40
2018-09-09T02:04:46.878Z,1016.43
2018-09-09T02:05:46.878Z,1016.43
2018-09-09T02:06:46.867Z,1016.43
2018-09-09T02:07:46.864Z,1016.39
2018-09-09T02:08:46.856Z,1016.39
2018-09-09T02:09:46.847Z,1016.39
2018-09-09T02:10:46.855Z,1016.35
2018-09-09T02:11:46.847Z,1016.36
2018-09-09T02:12:46.832Z,1016.37
2018-09-09T02:13:46.832Z,1016.36
2018-09-09T02:14:46.828Z,1016.34
2018-09-09T02:15:46.854Z,1016.32
2018-09-09T02:16:46.813Z,1016.28
2018-09-09T02:17:46.814Z,1016.25
2018-09-09T02:18:46.826Z,1016.23
2018-09-09T02:19:46.797Z,1016.23
2018-09-09T02:20:46.810Z,1016.22
2018-09-09T02:21:46.792Z,1016.17
2018-09-09T02:22:46.779Z,1016.18
2018-09-09T02:23:46.774Z,1016.15
2018-09-09T02:24:46.770Z,1016.22
2018-09-09T02:25:46.777Z,1016.19
2018-09-09T02:26:46.773Z,1016.22
2018-09-09T02:27:46.759Z,1016.25
2018-09-09T02:28:46.758Z,1016.25
2018-09-09T02:29:46.738Z,1016.23
2018-09-09T02:30:46.749Z,1016.19
2018-09-09T02:31:46.747Z,1016.18
2018-09-09T02:32:46.750Z,1016.18
2018-09-09T02:33:46.729Z,1016.23
2018-09-09T02:34:46.724Z,1016.27
2018-09-09T02:35:46.727Z,1016.29
2018-09-09T02:36:46.724Z,1016.34
2018-09-09T02:37:46.709Z,1016.37
2018-09-09T02:38:46.708Z,1016.39
2018-09-09T02:39:46.705Z,1016.39
2018-09-09T02:40:46.709Z,1016.36
2018-09-09T02:41:46.693Z,1016.30
2018-09-09T02:42:46.688Z,1016.28
2018-09-09T02:43:46.707Z,1016.26
2018-09-09T02:44:46.669Z,1016.27
2018-09-09T02:45:46.669Z,1016.25
2018-09-09T02:46:46.669Z,1016.31
2018-09-09T02:47:46.660Z,1016.31
2018-09-09T02:48:46.659Z,1016.34
2018-09-09T02:49:46.658Z,1016.35
2018-09-09T02:50:46.664Z,1016.41
2018-09-09T02:51:46.644Z,1016.42
2018-09-09T02:52:46.641Z,1016.45
2018-09-09T02:53:46.629Z,1016.47
2018-09-09T02:54:46.630Z,1016.45
2018-09-09T02:55:46.625Z,1016.46
2018-09-09T02:56:46.620Z,1016.52
2018-09-09T02:57:46.607Z,1016.51
2018-09-09T02:58:46.610Z,1016.51
2018-09-09T02:59:46.598Z,1016.50
2018-09-09T03:00:46.595Z,1016.47
2018-09-09T03:01:46.594Z,1016.49
2018-09-09T03:02:46.580Z,1016.45
2018-09-09T03:03:46.604Z,1016.45
2018-09-09T03:04:46.570Z,1016.46
2018-09-09T03:05:46.557Z,1016.47
2018-09-09T03:06:46.564Z,1016.44
2018-09-09T03:07:46.576Z,1016.46
2018-09-09T03:08:46.551Z,1016.45
2018-09-09T03:09:46.556Z,1016.43
2018-09-09T03:10:46.544Z,1016.45
2018-09-09T03:11:46.540Z,1016.47
2018-09-09T03:12:46.532Z,1016.50
2018-09-09T03:13:46.528Z,1016.48
2018-09-09T03:14:46.515Z,1016.46
2018-09-09T03:15:46.517Z,1016.46
2018-09-09T03:16:46.520Z,1016.43
2018-09-09T03:17:46.504Z,1016.48
2018-09-09T03:18:46.518Z,1016.47
2018-09-09T03:19:46.490Z,1016.51
2018-09-09T03:20:46.488Z,1016.48
2018-09-09T03:21:46.488Z,1016.45
2018-09-09T03:22:46.478Z,1016.45
2018-09-09T03:23:46.479Z,1016.43
2018-09-09T03:24:46.480Z,1016.42
2018-09-09T03:25:46.463Z,1016.42
2018-09-09T03:26:46.465Z,1016.47
2018-09-09T03:27:46.454Z,1016.47
2018-09-09T03:28:46.509Z,1016.51
2018-09-09T03:29:46.450Z,1016.49
2018-09-09T03:30:46.444Z,1016.50
2018-09-09T03:31:46.428Z,1016.47
2018-09-09T03:32:46.430Z,1016.40
2018-09-09T03:33:46.425Z,1016.36
2018-09-09T03:34:46.415Z,1016.36
2018-09-09T03:35:46.413Z,1016.34
2018-09-09T03:36:46.410Z,1016.41
2018-09-09T03:37:46.408Z,1016.42
2018-09-09T03:38:46.395Z,1016.38
2018-09-09T03:39:46.399Z,1016.39
2018-09-09T03:40:46.396Z,1016.41
2018-09-09T03:41:46.388Z,1016.47
2018-09-09T03:42:46.386Z,1016.46
2018-09-09T03:43:46.380Z,1016.46
2018-09-09T03:44:46.379Z,1016.41
2018-09-09T03:45:46.361Z,1016.35
2018-09-09T03:46:46.360Z,1016.34
2018-09-09T03:47:46.352Z,1016.29
2018-09-09T03:48:46.341Z,1016.24
2018-09-09T03:49:46.345Z,1016.24
2018-09-09T03:50:46.344Z,1016.21
2018-09-09T03:51:46.340Z,1016.21
2018-09-09T03:52:46.334Z,1016.22
2018-09-09T03:53:46.325Z,1016.21
2018-09-09T03:54:46.321Z,1016.23
2018-09-09T03:55:46.305Z,1016.25
2018-09-09T03:56:46.304Z,1016.22
2018-09-09T03:57:46.311Z,1016.27
2018-09-09T03:58:46.304Z,1016.23
2018-09-09T03:59:46.300Z,1016.22
2018-09-09T04:00:46.296Z,1016.23
2018-09-09T04:01:46.286Z,1016.21
2018-09-09T04:02:46.284Z,1016.23
2018-09-09T04:03:46.279Z,1016.23
2018-09-09T04:04:46.270Z,1016.26
2018-09-09T04:05:46.260Z,1016.27
2018-09-09T04:06:46.257Z,1016.24
2018-09-09T04:07:46.265Z,1016.25
2018-09-09T04:08:46.256Z,1016.25
2018-09-09T04:09:46.239Z,1016.26
2018-09-09T04:10:46.234Z,1016.28
2018-09-09T04:11:46.226Z,1016.25
2018-09-09T04:12:46.225Z,1016.27
2018-09-09T04:13:46.219Z,1016.27
2018-09-09T04:14:46.221Z,1016.27
2018-09-09T04:15:46.210Z,1016.27
2018-09-09T04:16:46.206Z,1016.20
2018-09-09T04:17:46.200Z,1016.22
2018-09-09T04:18:46.201Z,1016.19
2018-09-09T04:19:46.189Z,1016.16
2018-09-09T04:20:46.176Z,1016.18
2018-09-09T04:21:46.182Z,1016.25
2018-09-09T04:22:46.181Z,1016.20
2018-09-09T04:23:46.171Z,1016.26
2018-09-09T04:24:46.159Z,1016.24
2018-09-09T04:25:46.164Z,1016.23
2018-09-09T04:26:46.145Z,1016.27
2018-09-09T04:27:46.150Z,1016.26
2018-09-09T04:28:46.136Z,1016.26
2018-09-09T04:29:46.147Z,1016.28
2018-09-09T04:30:46.174Z,1016.25
2018-09-09T04:31:46.150Z,1016.27
2018-09-09T04:32:46.121Z,1016.23
2018-09-09T04:33:46.127Z,1016.23
2018-09-09T04:34:46.119Z,1016.23
2018-09-09T04:35:46.114Z,1016.22
2018-09-09T04:36:46.105Z,1016.28
2018-09-09T04:37:46.100Z,1016.31
2018-09-09T04:38:46.092Z,1016.37
2018-09-09T04:39:46.095Z,1016.39
2018-09-09T04:40:46.080Z,1016.41
2018-09-09T04:41:46.085Z,1016.44
2018-09-09T04:42:46.068Z,1016.44
2018-09-09T04:43:46.076Z,1016.46
2018-09-09T04:44:46.068Z,1016.53
2018-09-09T04:45:46.060Z,1016.53
2018-09-09T04:46:46.046Z,1016.54
2018-09-09T04:47:46.054Z,1016.54
2018-09-09T04:48:46.058Z,1016.49
2018-09-09T04:49:46.042Z,1016.48
2018-09-09T04:50:46.033Z,1016.45
2018-09-09T04:51:46.032Z,1016.46
2018-09-09T04:52:46.022Z,1016.50
2018-09-09T04:53:46.019Z,1016.48
2018-09-09T04:54:46.012Z,1016.52
2018-09-09T04:55:46.013Z,1016.49
2018-09-09T04:56:46.002Z,1016.49
2018-09-09T04:57:46.001Z,1016.48
2018-09-09T04:58:45.997Z,1016.47
2018-09-09T04:59:45.987Z,1016.46
2018-09-09T05:00:45.978Z,1016.50
2018-09-09T05:01:45.977Z,1016.55
2018-09-09T05:02:45.978Z,1016.60
2018-09-09T05:03:45.977Z,1016.58
2018-09-09T05:04:45.962Z,1016.59
2018-09-09T05:05:45.953Z,1016.63
2018-09-09T05:06:45.950Z,1016.69
2018-09-09T05:07:45.947Z,1016.72
2018-09-09T05:08:45.945Z,1016.76
2018-09-09T05:09:45.936Z,1016.78
2018-09-09T05:10:45.932Z,1016.80
2018-09-09T05:11:45.925Z,1016.76
2018-09-09T05:12:45.916Z,1016.73
2018-09-09T05:13:45.927Z,1016.71
2018-09-09T05:14:45.911Z,1016.68
2018-09-09T05:15:45.912Z,1016.68
2018-09-09T05:16:45.903Z,1016.68
2018-09-09T05:17:45.896Z,1016.67
2018-09-09T05:18:45.890Z,1016.70
2018-09-09T05:19:45.881Z,1016.67
2018-09-09T05:20:45.882Z,1016.71
2018-09-09T05:21:45.885Z,1016.74
2018-09-09T05:22:45.878Z,1016.75
2018-09-09T05:23:45.871Z,1016.74
2018-09-09T05:24:45.870Z,1016.76
2018-09-09T05:25:45.862Z,1016.76
2018-09-09T05:26:45.846Z,1016.77
2018-09-09T05:27:45.846Z,1016.79
2018-09-09T05:28:45.836Z,1016.79
2018-09-09T05:29:45.827Z,1016.73
2018-09-09T05:30:45.827Z,1016.70
2018-09-09T05:31:45.828Z,1016.68
2018-09-09T05:32:45.811Z,1016.66
2018-09-09T05:33:45.812Z,1016.69
2018-09-09T05:34:45.815Z,1016.71
2018-09-09T05:35:45.808Z,1016.64
2018-09-09T05:36:45.801Z,1016.66
2018-09-09T05:37:45.784Z,1016.67
2018-09-09T05:38:45.790Z,1016.66
2018-09-09T05:39:45.785Z,1016.70
2018-09-09T05:40:45.770Z,1016.69
2018-09-09T05:41:45.781Z,1016.63
2018-09-09T05:42:45.767Z,1016.60
2018-09-09T05:43:45.768Z,1016.57
2018-09-09T05:44:45.873Z,1016.57
2018-09-09T05:45:45.747Z,1016.64
2018-09-09T05:46:45.746Z,1016.67
2018-09-09T05:47:45.741Z,1016.74
2018-09-09T05:48:45.897Z,1016.77
2018-09-09T05:49:45.736Z,1016.81
2018-09-09T05:50:45.727Z,1016.82
2018-09-09T05:51:45.724Z,1016.89
2018-09-09T05:52:45.715Z,1016.92
2018-09-09T05:53:45.762Z,1016.94
2018-09-09T05:54:45.716Z,1016.91
2018-09-09T05:55:45.721Z,1016.89
2018-09-09T05:56:45.688Z,1016.90
2018-09-09T05:57:45.702Z,1016.90
2018-09-09T05:58:45.686Z,1016.85
2018-09-09T05:59:45.685Z,1016.89
2018-09-09T06:00:45.681Z,1016.92
2018-09-09T06:01:45.673Z,1016.89
2018-09-09T06:02:45.667Z,1016.89
2018-09-09T06:03:45.670Z,1016.91
2018-09-09T06:04:45.651Z,1016.89
2018-09-09T06:05:45.648Z,1016.91
2018-09-09T06:06:45.648Z,1016.85
2018-09-09T06:07:45.643Z,1016.85
2018-09-09T06:08:45.633Z,1016.86
2018-09-09T06:09:45.643Z,1016.86
2018-09-09T06:10:45.627Z,1016.92
2018-09-09T06:11:45.618Z,1016.95
2018-09-09T06:12:45.616Z,1016.99
2018-09-09T06:13:45.611Z,1016.98
2018-09-09T06:14:45.602Z,1017.00
2018-09-09T06:15:45.603Z,1016.95
2018-09-09T06:16:45.599Z,1016.94
2018-09-09T06:17:45.583Z,1016.97
2018-09-09T06:18:45.579Z,1016.99
2018-09-09T06:19:45.586Z,1017.00
2018-09-09T06:20:45.573Z,1017.02
2018-09-09T06:21:45.564Z,1017.04
2018-09-09T06:22:45.562Z,1017.02
2018-09-09T06:23:45.561Z,1017.05
2018-09-09T06:24:45.559Z,1017.09
2018-09-09T06:25:45.542Z,1017.09
2018-09-09T06:26:45.533Z,1017.07
2018-09-09T06:27:45.536Z,1017.11
2018-09-09T06:28:45.534Z,1017.12
2018-09-09T06:29:45.533Z,1017.13
2018-09-09T06:30:45.524Z,1017.13
2018-09-09T06:31:45.542Z,1017.17
2018-09-09T06:32:45.506Z,1017.21
2018-09-09T06:33:45.559Z,1017.20
2018-09-09T06:34:45.503Z,1017.22
2018-09-09T06:35:45.489Z,1017.24
2018-09-09T06:36:45.488Z,1017.22
2018-09-09T06:37:45.496Z,1017.20
2018-09-09T06:38:45.486Z,1017.22
2018-09-09T06:39:45.472Z,1017.21
2018-09-09T06:40:45.469Z,1017.19
2018-09-09T06:41:45.464Z,1017.23
2018-09-09T06:42:45.470Z,1017.16
2018-09-09T06:43:45.452Z,1017.16
2018-09-09T06:44:45.452Z,1017.15
2018-09-09T06:45:45.468Z,1017.18
2018-09-09T06:46:45.434Z,1017.16
2018-09-09T06:47:45.433Z,1017.16
2018-09-09T06:48:45.427Z,1017.17
2018-09-09T06:49:45.424Z,1017.15
2018-09-09T06:50:45.427Z,1017.20
2018-09-09T06:51:45.416Z,1017.17
2018-09-09T06:52:45.412Z,1017.18
2018-09-09T06:53:45.403Z,1017.16
2018-09-09T06:54:45.435Z,1017.22
2018-09-09T06:55:45.417Z,1017.21
2018-09-09T06:56:45.397Z,1017.22
2018-09-09T06:57:45.387Z,1017.24
2018-09-09T06:58:45.405Z,1017.24
2018-09-09T06:59:45.377Z,1017.21
2018-09-09T07:00:45.363Z,1017.21
2018-09-09T07:01:45.372Z,1017.19
2018-09-09T07:02:45.372Z,1017.24
2018-09-09T07:03:45.369Z,1017.19
2018-09-09T07:04:45.406Z,1017.18
2018-09-09T07:05:45.338Z,1017.16
2018-09-09T07:06:45.333Z,1017.19
2018-09-09T07:07:45.333Z,1017.16
2018-09-09T07:08:45.342Z,1017.16
2018-09-09T07:09:45.320Z,1017.19
2018-09-09T07:10:45.338Z,1017.19
2018-09-09T07:11:45.444Z,1017.22
2018-09-09T07:12:45.329Z,1017.17
2018-09-09T07:13:45.310Z,1017.17
2018-09-09T07:14:45.313Z,1017.17
2018-09-09T07:15:45.292Z,1017.16
2018-09-09T07:16:45.282Z,1017.19
2018-09-09T07:17:45.284Z,1017.17
2018-09-09T07:18:45.272Z,1017.18
2018-09-09T07:19:45.278Z,1017.16
2018-09-09T07:20:45.268Z,1017.14
2018-09-09T07:21:45.249Z,1017.11
2018-09-09T07:22:45.322Z,1017.10
2018-09-09T07:23:45.238Z,1017.07
2018-09-09T07:24:45.243Z,1017.10
2018-09-09T07:25:45.238Z,1017.11
2018-09-09T07:26:45.235Z,1017.09
2018-09-09T07:27:45.226Z,1017.07
2018-09-09T07:28:45.222Z,1017.11
2018-09-09T07:29:45.229Z,1017.12
2018-09-09T07:30:45.214Z,1017.13
2018-09-09T07:31:45.233Z,1017.11
2018-09-09T07:32:45.198Z,1017.12
2018-09-09T07:33:45.204Z,1017.16
2018-09-09T07:34:45.198Z,1017.17
2018-09-09T07:35:45.188Z,1017.23
2018-09-09T07:36:45.181Z,1017.22
2018-09-09T07:37:45.201Z,1017.27
2018-09-09T07:38:45.171Z,1017.27
2018-09-09T07:39:45.177Z,1017.25
2018-09-09T07:40:45.164Z,1017.30
2018-09-09T07:41:45.171Z,1017.30
2018-09-09T07:42:45.158Z,1017.35
2018-09-09T07:43:45.178Z,1017.35
2018-09-09T07:44:45.155Z,1017.33
2018-09-09T07:45:45.135Z,1017.37
2018-09-09T07:46:45.139Z,1017.34
2018-09-09T07:47:45.141Z,1017.39
2018-09-09T07:48:45.130Z,1017.41
2018-09-09T07:49:45.115Z,1017.43
2018-09-09T07:50:45.141Z,1017.47
2018-09-09T07:51:45.103Z,1017.46
2018-09-09T07:52:45.136Z,1017.50
2018-09-09T07:53:45.095Z,1017.49
2018-09-09T07:54:45.102Z,1017.49
2018-09-09T07:55:45.083Z,1017.49
2018-09-09T07:56:45.079Z,1017.49
2018-09-09T07:57:45.112Z,1017.50
2018-09-09T07:58:45.071Z,1017.45
2018-09-09T07:59:45.072Z,1017.44
2018-09-09T08:00:45.064Z,1017.45
2018-09-09T08:01:45.057Z,1017.45
2018-09-09T08:02:45.054Z,1017.45
2018-09-09T08:03:45.048Z,1017.47
2018-09-09T08:04:45.040Z,1017.46
2018-09-09T08:05:45.041Z,1017.48
2018-09-09T08:06:45.043Z,1017.50
2018-09-09T08:07:45.029Z,1017.53
2018-09-09T08:08:45.026Z,1017.50
2018-09-09T08:09:45.016Z,1017.52
2018-09-09T08:10:45.014Z,1017.51
2018-09-09T08:11:44.998Z,1017.51
2018-09-09T08:12:45.001Z,1017.50
2018-09-09T08:13:44.999Z,1017.51
2018-09-09T08:14:44.999Z,1017.50
2018-09-09T08:15:44.996Z,1017.50
2018-09-09T08:16:44.980Z,1017.48
2018-09-09T08:17:44.980Z,1017.44
2018-09-09T08:18:44.997Z,1017.45
2018-09-09T08:19:44.967Z,1017.47
2018-09-09T08:20:44.957Z,1017.44
2018-09-09T08:21:44.974Z,1017.46
2018-09-09T08:22:44.945Z,1017.44
2018-09-09T08:23:45.096Z,1017.44
2018-09-09T08:24:44.965Z,1017.42
2018-09-09T08:25:44.934Z,1017.39
2018-09-09T08:26:44.936Z,1017.41
2018-09-09T08:27:44.930Z,1017.43
2018-09-09T08:28:44.932Z,1017.41
2018-09-09T08:29:44.919Z,1017.40
2018-09-09T08:30:44.904Z,1017.44
2018-09-09T08:31:44.916Z,1017.43
2018-09-09T08:32:44.909Z,1017.44
2018-09-09T08:33:44.893Z,1017.42
2018-09-09T08:34:44.907Z,1017.43
2018-09-09T08:35:44.913Z,1017.44
2018-09-09T08:36:44.874Z,1017.44
2018-09-09T08:37:44.875Z,1017.47
2018-09-09T08:38:44.870Z,1017.47
2018-09-09T08:39:44.895Z,1017.47
2018-09-09T08:40:44.864Z,1017.51
2018-09-09T08:41:44.867Z,1017.51
2018-09-09T08:42:44.854Z,1017.50
2018-09-09T08:43:44.855Z,1017.53
2018-09-09T08:44:44.846Z,1017.54
2018-09-09T08:45:44.840Z,1017.53
2018-09-09T08:46:44.859Z,1017.53
2018-09-09T08:47:44.852Z,1017.57
2018-09-09T08:48:44.832Z,1017.61
2018-09-09T08:49:44.821Z,1017.60
2018-09-09T08:50:44.834Z,1017.61
2018-09-09T08:51:44.886Z,1017.65
2018-09-09T08:52:44.802Z,1017.63
2018-09-09T08:53:44.799Z,1017.64
2018-09-09T08:54:44.794Z,1017.63
2018-09-09T08:55:44.794Z,1017.60
2018-09-09T08:56:44.801Z,1017.61
2018-09-09T08:57:44.786Z,1017.59
2018-09-09T08:58:44.776Z,1017.57
2018-09-09T08:59:44.777Z,1017.61
2018-09-09T09:00:44.767Z,1017.64
2018-09-09T09:01:44.764Z,1017.66
2018-09-09T09:02:44.764Z,1017.65
2018-09-09T09:03:44.757Z,1017.66
2018-09-09T09:04:44.754Z,1017.60
2018-09-09T09:05:44.752Z,1017.60
2018-09-09T09:06:44.745Z,1017.60
2018-09-09T09:07:44.804Z,1017.58
2018-09-09T09:08:44.732Z,1017.57
2018-09-09T09:09:44.719Z,1017.56
2018-09-09T09:10:44.713Z,1017.57
2018-09-09T09:11:44.710Z,1017.59
2018-09-09T09:12:44.705Z,1017.58
2018-09-09T09:13:44.705Z,1017.55
2018-09-09T09:14:44.753Z,1017.57
2018-09-09T09:15:44.715Z,1017.56
2018-09-09T09:16:44.691Z,1017.56
2018-09-09T09:17:44.699Z,1017.56
2018-09-09T09:18:44.703Z,1017.57
2018-09-09T09:19:44.684Z,1017.57
2018-09-09T09:20:44.852Z,1017.58
2018-09-09T09:21:44.676Z,1017.53
2018-09-09T09:22:44.670Z,1017.57
2018-09-09T09:23:44.722Z,1017.59
2018-09-09T09:24:44.721Z,1017.55
2018-09-09T09:25:44.661Z,1017.56
2018-09-09T09:26:44.651Z,1017.59
2018-09-09T09:27:44.662Z,1017.61
2018-09-09T09:28:44.638Z,1017.60
2018-09-09T09:29:44.640Z,1017.61
2018-09-09T09:30:44.655Z,1017.57
2018-09-09T09:31:44.615Z,1017.58
2018-09-09T09:32:44.613Z,1017.59
2018-09-09T09:33:44.611Z,1017.64
2018-09-09T09:34:44.600Z,1017.64
2018-09-09T09:35:44.592Z,1017.61
2018-09-09T09:36:44.602Z,1017.61
2018-09-09T09:37:44.596Z,1017.60
2018-09-09T09:38:44.585Z,1017.60
2018-09-09T09:39:44.584Z,1017.62
2018-09-09T09:40:44.586Z,1017.55
2018-09-09T09:41:44.575Z,1017.56
2018-09-09T09:42:44.565Z,1017.56
2018-09-09T09:43:44.562Z,1017.54
2018-09-09T09:44:44.610Z,1017.53
2018-09-09T09:45:44.553Z,1017.54
2018-09-09T09:46:44.565Z,1017.54
2018-09-09T09:47:44.530Z,1017.56
2018-09-09T09:48:44.541Z,1017.50
2018-09-09T09:49:44.543Z,1017.54
2018-09-09T09:50:44.575Z,1017.51
2018-09-09T09:51:44.522Z,1017.49
2018-09-09T09:52:44.521Z,1017.46
2018-09-09T09:53:44.539Z,1017.45
2018-09-09T09:54:44.510Z,1017.54
2018-09-09T09:55:44.515Z,1017.55
2018-09-09T09:56:44.505Z,1017.52
2018-09-09T09:57:44.487Z,1017.48
2018-09-09T09:58:44.490Z,1017.48
2018-09-09T09:59:44.481Z,1017.52
2018-09-09T10:00:44.483Z,1017.47
2018-09-09T10:01:44.492Z,1017.48
2018-09-09T10:02:44.472Z,1017.47
2018-09-09T10:03:44.473Z,1017.49
2018-09-09T10:04:44.478Z,1017.50
2018-09-09T10:05:44.456Z,1017.49
2018-09-09T10:06:44.449Z,1017.52
2018-09-09T10:07:44.448Z,1017.49
2018-09-09T10:08:44.451Z,1017.51
2018-09-09T10:09:44.447Z,1017.52
2018-09-09T10:10:44.427Z,1017.55
2018-09-09T10:11:44.450Z,1017.57
2018-09-09T10:12:44.434Z,1017.58
2018-09-09T10:13:44.414Z,1017.64
2018-09-09T10:14:44.426Z,1017.60
2018-09-09T10:15:44.416Z,1017.61
2018-09-09T10:16:44.421Z,1017.61
2018-09-09T10:17:44.398Z,1017.63
2018-09-09T10:18:44.392Z,1017.67
2018-09-09T10:19:44.401Z,1017.64
2018-09-09T10:20:44.383Z,1017.63
2018-09-09T10:21:44.385Z,1017.63
2018-09-09T10:22:44.378Z,1017.66
2018-09-09T10:23:44.461Z,1017.70
2018-09-09T10:24:44.382Z,1017.65
2018-09-09T10:25:44.366Z,1017.64
2018-09-09T10:26:44.363Z,1017.59
2018-09-09T10:27:44.371Z,1017.65
2018-09-09T10:28:44.354Z,1017.66
2018-09-09T10:29:44.340Z,1017.70
2018-09-09T10:30:44.357Z,1017.67
2018-09-09T10:31:44.346Z,1017.67
2018-09-09T10:32:44.334Z,1017.61
2018-09-09T10:33:44.343Z,1017.63
2018-09-09T10:34:44.323Z,1017.64
2018-09-09T10:35:44.321Z,1017.63
2018-09-09T10:36:44.337Z,1017.64
2018-09-09T10:37:44.308Z,1017.61
2018-09-09T10:38:44.359Z,1017.68
2018-09-09T10:39:44.305Z,1017.64
2018-09-09T10:40:44.299Z,1017.63
2018-09-09T10:41:44.322Z,1017.59
2018-09-09T10:42:44.293Z,1017.58
2018-09-09T10:43:44.300Z,1017.59
2018-09-09T10:44:44.277Z,1017.56
2018-09-09T10:45:44.295Z,1017.60
2018-09-09T10:46:44.355Z,1017.54
2018-09-09T10:47:44.263Z,1017.54
2018-09-09T10:48:44.268Z,1017.58
2018-09-09T10:49:44.261Z,1017.59
2018-09-09T10:50:44.253Z,1017.63
2018-09-09T10:51:44.258Z,1017.61
2018-09-09T10:52:44.251Z,1017.60
2018-09-09T10:53:44.239Z,1017.62
2018-09-09T10:54:44.231Z,1017.61
2018-09-09T10:55:44.228Z,1017.61
2018-09-09T10:56:44.218Z,1017.62
2018-09-09T10:57:44.213Z,1017.62
2018-09-09T10:58:44.243Z,1017.59
2018-09-09T10:59:44.198Z,1017.59
2018-09-09T11:00:44.219Z,1017.61
2018-09-09T11:01:44.206Z,1017.57
2018-09-09T11:02:44.189Z,1017.56
2018-09-09T11:03:44.181Z,1017.57
2018-09-09T11:04:44.174Z,1017.52
2018-09-09T11:05:44.192Z,1017.59
2018-09-09T11:06:44.175Z,1017.47
2018-09-09T11:07:44.179Z,1017.50
2018-09-09T11:08:44.167Z,1017.47
2018-09-09T11:09:44.168Z,1017.44
2018-09-09T11:10:44.152Z,1017.45
2018-09-09T11:11:44.171Z,1017.41
2018-09-09T11:12:44.217Z,1017.40
2018-09-09T11:13:44.146Z,1017.41
2018-09-09T11:14:44.144Z,1017.44
2018-09-09T11:15:44.132Z,1017.40
2018-09-09T11:16:44.152Z,1017.43
2018-09-09T11:17:44.127Z,1017.43
2018-09-09T11:18:44.122Z,1017.41
2018-09-09T11:19:44.138Z,1017.38
2018-09-09T11:20:44.135Z,1017.38
2018-09-09T11:21:44.124Z,1017.40
2018-09-09T11:22:44.108Z,1017.40
2018-09-09T11:23:44.105Z,1017.43
2018-09-09T11:24:44.096Z,1017.43
2018-09-09T11:25:44.093Z,1017.43
2018-09-09T11:26:44.083Z,1017.43
2018-09-09T11:27:44.069Z,1017.34
2018-09-09T11:28:44.103Z,1017.36
2018-09-09T11:29:44.063Z,1017.33
2018-09-09T11:30:44.062Z,1017.32
2018-09-09T11:31:44.077Z,1017.34
2018-09-09T11:32:44.091Z,1017.32
2018-09-09T11:33:44.058Z,1017.29
2018-09-09T11:34:44.050Z,1017.32
2018-09-09T11:35:44.042Z,1017.35
2018-09-09T11:36:44.038Z,1017.36
2018-09-09T11:37:44.040Z,1017.35
2018-09-09T11:38:44.023Z,1017.40
2018-09-09T11:39:44.036Z,1017.42
2018-09-09T11:40:44.035Z,1017.35
2018-09-09T11:41:44.020Z,1017.41
2018-09-09T11:42:44.019Z,1017.39
2018-09-09T11:43:44.004Z,1017.37
2018-09-09T11:44:44.013Z,1017.35
2018-09-09T11:45:44.034Z,1017.38
2018-09-09T11:46:44.021Z,1017.36
2018-09-09T11:47:43.990Z,1017.29
2018-09-09T11:48:43.980Z,1017.23
2018-09-09T11:49:43.973Z,1017.22
2018-09-09T11:50:43.977Z,1017.30
2018-09-09T11:51:43.968Z,1017.25
2018-09-09T11:52:43.967Z,1017.15
2018-09-09T11:53:43.975Z,1017.14
2018-09-09T11:54:43.972Z,1017.17
2018-09-09T11:55:43.963Z,1017.13
2018-09-09T11:56:43.944Z,1017.16
2018-09-09T11:57:43.941Z,1017.15
2018-09-09T11:58:43.938Z,1017.14
2018-09-09T11:59:43.938Z,1017.10
2018-09-09T12:00:43.923Z,1017.08
2018-09-09T12:01:43.917Z,1017.12
2018-09-09T12:02:43.922Z,1017.06
2018-09-09T12:03:43.908Z,1017.09
2018-09-09T12:04:43.903Z,1017.10
2018-09-09T12:05:43.924Z,1017.08